createdAt,value
2023-02-02T00:02:03.333Z,22.07
2023-02-02T00:04:32.539Z,21.23
2023-02-02T00:07:00.865Z,16.50
2023-02-02T00:09:30.190Z,19.33
2023-02-02T00:11:58.813Z,22.13
2023-02-02T00:14:26.662Z,30.45
2023-02-02T00:16:56.868Z,22.13
2023-02-02T00:19:26.443Z,15.50
2023-02-02T00:21:54.998Z,20.53
2023-02-02T00:24:23.544Z,20.92
2023-02-02T00:26:52.894Z,18.27
2023-02-02T00:29:23.142Z,20.53
2023-02-02T00:31:51.484Z,23.80
2023-02-02T00:34:21.415Z,26.95
2023-02-02T00:36:49.815Z,19.47
2023-02-02T00:39:19.023Z,22.08
2023-02-02T00:41:46.926Z,19.37
2023-02-02T00:44:32.213Z,17.80
2023-02-02T00:46:59.866Z,25.63
2023-02-02T00:49:28.860Z,25.00
2023-02-02T00:51:56.411Z,22.10
2023-02-02T00:54:24.063Z,19.63
2023-02-02T00:56:51.642Z,13.10
2023-02-02T00:59:19.279Z,12.07
2023-02-02T01:01:46.972Z,14.80
2023-02-02T01:04:14.663Z,9.70
2023-02-02T01:06:43.703Z,11.20
2023-02-02T01:09:11.482Z,8.23
2023-02-02T01:11:39.147Z,8.00
2023-02-02T01:14:06.825Z,8.90
2023-02-02T01:16:34.466Z,6.87
2023-02-02T01:19:02.108Z,9.43
2023-02-02T01:21:29.811Z,8.57
2023-02-02T01:23:58.884Z,10.40
2023-02-02T01:26:26.560Z,8.27
2023-02-02T01:28:54.230Z,7.83
2023-02-02T01:31:22.187Z,6.47
2023-02-02T01:33:50.848Z,6.25
2023-02-02T01:36:21.578Z,7.03
2023-02-02T01:38:50.192Z,3.67
2023-02-02T01:41:21.296Z,3.88
2023-02-02T01:43:55.077Z,8.03
2023-02-02T01:46:24.796Z,6.27
2023-02-02T01:48:57.810Z,6.90
2023-02-02T01:51:30.879Z,5.33
2023-02-02T01:54:00.636Z,8.87
2023-02-02T01:56:33.802Z,6.83
2023-02-02T01:59:02.166Z,12.13
2023-02-02T02:01:30.085Z,11.25
2023-02-02T02:03:58.130Z,16.55
2023-02-02T02:06:26.763Z,16.33
2023-02-02T02:08:57.941Z,9.57
2023-02-02T02:11:26.098Z,17.33
2023-02-02T02:14:14.972Z,19.75
2023-02-02T02:16:54.031Z,19.97
2023-02-02T02:20:01.761Z,22.43
2023-02-02T02:22:56.787Z,21.15
2023-02-02T02:26:04.899Z,21.83
2023-02-02T02:29:07.318Z,22.85
2023-02-02T02:32:03.817Z,18.80
2023-02-02T02:34:44.519Z,21.53
2023-02-02T02:37:17.831Z,22.90
2023-02-02T02:39:51.739Z,23.73
2023-02-02T02:42:25.026Z,22.97
2023-02-02T02:44:56.177Z,26.87
2023-02-02T02:47:26.121Z,22.43
2023-02-02T02:49:53.707Z,27.50
2023-02-02T02:52:21.291Z,20.97
2023-02-02T02:54:52.682Z,30.43
2023-02-02T02:57:35.006Z,29.03
2023-02-02T03:00:11.373Z,25.40
2023-02-02T03:02:50.327Z,21.30
2023-02-02T03:05:27.860Z,23.43
2023-02-02T03:08:04.140Z,25.20
2023-02-02T03:10:32.669Z,20.10
2023-02-02T03:13:00.438Z,21.85
2023-02-02T03:15:28.007Z,26.40
2023-02-02T03:17:56.972Z,21.53
2023-02-02T03:20:24.612Z,24.83
2023-02-02T03:22:52.187Z,22.73
2023-02-02T03:25:19.829Z,23.67
2023-02-02T03:27:47.534Z,18.30
2023-02-02T03:30:15.805Z,23.57
2023-02-02T03:32:43.911Z,17.27
2023-02-02T03:35:12.980Z,23.75
2023-02-02T03:37:40.595Z,21.30
2023-02-02T03:40:09.174Z,24.60
2023-02-02T03:42:36.751Z,20.05
2023-02-02T03:45:04.739Z,22.20
2023-02-02T03:47:32.568Z,28.63
2023-02-02T03:50:00.294Z,17.10
2023-02-02T03:52:29.272Z,28.87
2023-02-02T03:54:57.195Z,23.60
2023-02-02T03:57:24.921Z,23.98
2023-02-02T03:59:52.552Z,24.97
2023-02-02T04:02:20.155Z,20.37
2023-02-02T04:04:47.787Z,17.80
2023-02-02T04:07:15.560Z,21.93
2023-02-02T04:09:44.567Z,26.13
2023-02-02T04:12:12.186Z,24.47
2023-02-02T04:14:39.748Z,19.30
2023-02-02T04:17:07.338Z,26.13
2023-02-02T04:19:35.017Z,20.70
2023-02-02T04:22:02.665Z,24.63
2023-02-02T04:24:30.276Z,23.00
2023-02-02T04:26:59.240Z,17.33
2023-02-02T04:29:27.343Z,14.03
2023-02-02T04:31:55.223Z,29.00
2023-02-02T04:34:22.813Z,20.25
2023-02-02T04:36:50.460Z,22.00
2023-02-02T04:39:18.032Z,16.27
2023-02-02T04:41:45.579Z,20.87
2023-02-02T04:44:16.520Z,16.90
2023-02-02T04:46:44.759Z,20.73
2023-02-02T04:49:12.897Z,18.17
2023-02-02T04:51:41.048Z,20.38
2023-02-02T04:54:09.225Z,17.73
2023-02-02T04:56:37.143Z,21.30
2023-02-02T04:59:04.749Z,30.90
2023-02-02T05:01:33.708Z,24.27
2023-02-02T05:04:01.296Z,21.87
2023-02-02T05:06:28.843Z,23.23
2023-02-02T05:08:56.438Z,22.63
2023-02-02T05:11:24.881Z,19.97
2023-02-02T05:13:54.714Z,22.20
2023-02-02T05:16:23.721Z,17.17
2023-02-02T05:18:54.334Z,19.63
2023-02-02T05:21:22.112Z,20.30
2023-02-02T05:23:50.131Z,20.07
2023-02-02T05:26:20.505Z,11.98
2023-02-02T05:28:48.371Z,18.43
2023-02-02T05:31:16.370Z,20.17
2023-02-02T05:33:44.114Z,19.85
2023-02-02T05:36:13.984Z,23.63
2023-02-02T05:38:41.597Z,16.47
2023-02-02T05:41:09.239Z,19.07
2023-02-02T05:43:36.937Z,20.57
2023-02-02T05:46:05.008Z,20.20
2023-02-02T05:48:32.604Z,15.50
2023-02-02T05:51:04.551Z,15.80
2023-02-02T05:53:33.937Z,20.63
2023-02-02T05:56:01.819Z,18.70
2023-02-02T05:58:29.488Z,20.10
2023-02-02T06:00:57.097Z,22.57
2023-02-02T06:03:25.216Z,18.27
2023-02-02T06:05:53.646Z,22.42
2023-02-02T06:08:21.256Z,16.85
2023-02-02T06:10:50.275Z,18.50
2023-02-02T06:13:17.912Z,21.30
2023-02-02T06:15:45.585Z,19.97
2023-02-02T06:18:13.238Z,20.07
2023-02-02T06:20:40.851Z,15.20
2023-02-02T06:23:08.510Z,17.93
2023-02-02T06:25:36.273Z,20.60
2023-02-02T06:28:05.588Z,17.17
2023-02-02T06:30:33.319Z,19.83
2023-02-02T06:33:01.794Z,18.43
2023-02-02T06:35:29.530Z,20.23
2023-02-02T06:37:57.119Z,21.53
2023-02-02T06:40:24.736Z,19.57
2023-02-02T06:42:57.443Z,22.40
2023-02-02T06:45:27.035Z,23.43
2023-02-02T06:47:55.134Z,22.53
2023-02-02T06:50:22.800Z,16.65
2023-02-02T06:52:50.838Z,18.30
2023-02-02T06:55:18.510Z,20.35
2023-02-02T06:57:46.716Z,18.73
2023-02-02T07:00:15.441Z,20.17
2023-02-02T07:02:47.400Z,18.50
2023-02-02T07:05:15.136Z,25.87
2023-02-02T07:07:42.823Z,23.03
2023-02-02T07:11:13.856Z,22.37
2023-02-02T07:12:58.587Z,19.63
2023-02-02T07:15:26.497Z,22.63
2023-02-02T07:17:56.922Z,22.73
2023-02-02T07:20:24.527Z,22.73
2023-02-02T07:22:52.191Z,20.80
2023-02-02T07:25:19.925Z,21.43
2023-02-02T07:27:48.330Z,22.90
2023-02-02T07:30:17.086Z,17.92
2023-02-02T07:32:48.006Z,17.05
2023-02-02T07:35:17.859Z,15.97
2023-02-02T07:37:45.538Z,19.67
2023-02-02T07:40:14.028Z,21.57
2023-02-02T07:42:41.687Z,18.75
2023-02-02T07:45:27.501Z,16.73
2023-02-02T07:47:58.132Z,26.85
2023-02-02T07:50:28.320Z,21.75
2023-02-02T07:52:56.350Z,21.10
2023-02-02T07:55:23.962Z,19.98
2023-02-02T07:57:55.408Z,20.43
2023-02-02T08:00:24.837Z,19.07
2023-02-02T08:02:52.743Z,25.23
2023-02-02T08:05:22.700Z,18.70
2023-02-02T08:07:51.858Z,24.03
2023-02-02T08:10:19.668Z,21.43
2023-02-02T08:12:47.272Z,17.40
2023-02-02T08:15:15.021Z,19.03
2023-02-02T08:17:45.973Z,18.53
2023-02-02T08:20:14.693Z,16.80
2023-02-02T08:22:42.401Z,21.90
2023-02-02T08:25:11.571Z,23.80
2023-02-02T08:27:39.135Z,27.77
2023-02-02T08:30:07.688Z,22.27
2023-02-02T08:32:35.625Z,21.02
2023-02-02T08:35:03.394Z,21.95
2023-02-02T08:37:31.055Z,30.57
2023-02-02T08:39:58.669Z,19.87
2023-02-02T08:42:28.439Z,31.57
2023-02-02T08:46:02.282Z,15.93
2023-02-02T08:47:43.626Z,22.17
2023-02-02T08:50:12.380Z,18.73
2023-02-02T08:52:39.988Z,20.38
2023-02-02T08:55:08.171Z,18.37
2023-02-02T08:57:37.448Z,15.30
2023-02-02T09:00:06.722Z,11.80
2023-02-02T09:02:34.338Z,18.07
2023-02-02T09:05:02.022Z,21.20
2023-02-02T09:07:29.614Z,21.03
2023-02-02T09:09:58.156Z,22.43
2023-02-02T09:12:26.042Z,15.18
2023-02-02T09:14:55.025Z,20.80
2023-02-02T09:17:24.119Z,18.67
2023-02-02T09:19:51.715Z,17.13
2023-02-02T09:22:19.379Z,23.97
2023-02-02T09:24:47.023Z,25.63
2023-02-02T09:27:14.678Z,17.47
2023-02-02T09:29:42.262Z,22.60
2023-02-02T09:32:11.629Z,21.50
2023-02-02T09:34:40.201Z,20.60
2023-02-02T09:37:08.598Z,21.23
2023-02-02T09:39:36.155Z,16.57
2023-02-02T09:42:31.219Z,17.50
2023-02-02T09:45:07.805Z,20.97
2023-02-02T09:47:53.118Z,18.10
2023-02-02T09:50:32.481Z,19.80
2023-02-02T09:53:07.851Z,15.33
2023-02-02T09:55:38.896Z,15.63
2023-02-02T09:58:13.267Z,17.03
2023-02-02T10:00:45.508Z,19.40
2023-02-02T10:03:20.933Z,19.87
2023-02-02T10:05:56.047Z,21.53
2023-02-02T10:08:34.934Z,24.43
2023-02-02T10:11:09.428Z,16.63
2023-02-02T10:13:43.513Z,17.17
2023-02-02T10:16:18.103Z,16.07
2023-02-02T10:18:52.956Z,21.23
2023-02-02T10:21:27.852Z,17.13
2023-02-02T10:23:57.960Z,26.30
2023-02-02T10:26:33.236Z,15.57
2023-02-02T10:29:14.431Z,13.40
2023-02-02T10:31:50.929Z,19.03
2023-02-02T10:34:25.584Z,18.83
2023-02-02T10:37:14.302Z,19.37
2023-02-02T10:39:58.618Z,21.83
2023-02-02T10:42:35.624Z,13.87
2023-02-02T10:45:05.455Z,19.87
2023-02-02T10:47:34.915Z,19.30
2023-02-02T10:50:17.435Z,16.00
2023-02-02T10:52:48.467Z,14.67
2023-02-02T10:55:22.713Z,23.40
2023-02-02T10:57:59.227Z,20.87
2023-02-02T11:00:32.959Z,18.50
2023-02-02T11:03:04.486Z,15.67
2023-02-02T11:05:51.065Z,13.60
2023-02-02T11:08:21.700Z,21.07
2023-02-02T11:10:53.739Z,18.17
2023-02-02T11:13:29.166Z,19.53
2023-02-02T11:16:23.494Z,15.53
2023-02-02T11:18:51.281Z,14.57
2023-02-02T11:21:22.920Z,22.27
2023-02-02T11:24:01.421Z,16.13
2023-02-02T11:26:42.969Z,18.92
2023-02-02T11:29:22.604Z,19.37
2023-02-02T11:31:50.212Z,17.83
2023-02-02T11:34:20.895Z,14.50
2023-02-02T11:37:13.906Z,16.47
2023-02-02T11:39:41.658Z,19.60
2023-02-02T11:42:16.076Z,14.97
2023-02-02T11:44:47.640Z,13.23
2023-02-02T11:47:25.865Z,17.07
2023-02-02T11:49:55.525Z,19.70
2023-02-02T11:52:32.330Z,15.83
2023-02-02T11:55:10.186Z,17.17
2023-02-02T11:57:37.976Z,14.13
2023-02-02T12:00:19.519Z,17.03
2023-02-02T12:02:49.067Z,17.70
2023-02-02T12:05:36.014Z,15.80
2023-02-02T12:08:06.933Z,13.60
2023-02-02T12:10:42.653Z,15.90
2023-02-02T12:13:15.461Z,15.67
2023-02-02T12:15:52.280Z,15.23
2023-02-02T12:18:41.508Z,12.77
2023-02-02T12:21:15.100Z,18.30
2023-02-02T12:23:56.414Z,10.33
2023-02-02T12:26:29.128Z,15.60
2023-02-02T12:29:15.300Z,19.30
2023-02-02T12:31:57.630Z,13.13
2023-02-02T12:34:33.729Z,15.27
2023-02-02T12:37:07.405Z,15.97
2023-02-02T12:39:48.142Z,19.17
2023-02-02T12:42:34.074Z,18.30
2023-02-02T12:45:21.836Z,16.97
2023-02-02T12:48:02.995Z,13.80
2023-02-02T12:50:36.206Z,17.33
2023-02-02T12:53:21.162Z,16.23
2023-02-02T12:55:58.219Z,19.00
2023-02-02T12:58:33.989Z,13.90
2023-02-02T13:01:18.065Z,15.13
2023-02-02T13:04:17.425Z,13.83
2023-02-02T13:07:21.654Z,13.20
2023-02-02T13:09:52.966Z,18.60
2023-02-02T13:12:24.831Z,14.67
2023-02-02T13:14:56.177Z,17.13
2023-02-02T13:17:29.071Z,15.60
2023-02-02T13:20:02.187Z,17.23
2023-02-02T13:22:33.234Z,18.23
2023-02-02T13:25:08.441Z,16.07
2023-02-02T13:27:39.683Z,19.90
2023-02-02T13:30:18.758Z,18.47
2023-02-02T13:32:48.113Z,13.63
2023-02-02T13:35:19.909Z,16.37
2023-02-02T13:37:52.688Z,14.50
2023-02-02T13:40:28.383Z,13.27
2023-02-02T13:43:06.250Z,9.90
2023-02-02T13:45:47.501Z,5.25
2023-02-02T13:48:26.402Z,8.20
2023-02-02T13:51:15.656Z,7.57
2023-02-02T13:54:02.260Z,5.53
2023-02-02T13:56:40.459Z,8.73
2023-02-02T13:59:36.673Z,4.57
2023-02-02T14:02:07.358Z,6.87
2023-02-02T14:04:35.580Z,4.33
2023-02-02T14:07:06.114Z,5.47
2023-02-02T14:09:37.039Z,4.70
2023-02-02T14:12:08.082Z,3.80
2023-02-02T14:14:40.135Z,3.33
2023-02-02T14:17:28.830Z,5.60
2023-02-02T14:22:45.575Z,6.43
2023-02-02T14:25:53.366Z,7.00
2023-02-02T14:28:54.231Z,9.35
2023-02-02T14:31:43.248Z,7.67
2023-02-02T14:34:30.428Z,10.87
2023-02-02T14:37:20.491Z,10.43
2023-02-02T14:39:58.739Z,7.83
2023-02-02T14:43:06.505Z,10.75
2023-02-02T14:45:35.763Z,11.02
2023-02-02T14:48:09.876Z,9.70
2023-02-02T14:50:49.240Z,12.70
2023-02-02T14:53:26.522Z,9.27
2023-02-02T14:55:59.121Z,11.10
2023-02-02T14:58:31.558Z,12.93
2023-02-02T15:01:08.330Z,12.70
2023-02-02T15:03:55.621Z,14.07
2023-02-02T15:06:32.923Z,21.67
2023-02-02T15:09:43.076Z,15.00
2023-02-02T15:12:24.767Z,17.53
2023-02-02T15:14:58.707Z,14.00
2023-02-02T15:17:34.355Z,16.53
2023-02-02T15:20:13.337Z,15.63
2023-02-02T15:22:46.908Z,11.73
2023-02-02T15:25:21.187Z,13.13
2023-02-02T15:27:57.141Z,19.20
2023-02-02T15:30:27.547Z,27.87
2023-02-02T15:32:56.638Z,17.63
2023-02-02T15:35:29.507Z,21.70
2023-02-02T15:38:01.507Z,16.60
2023-02-02T15:40:32.175Z,18.17
2023-02-02T15:43:06.196Z,20.83
2023-02-02T15:45:43.349Z,21.07
2023-02-02T15:48:20.736Z,15.13
2023-02-02T15:50:51.104Z,19.07
2023-02-02T15:53:21.633Z,14.77
2023-02-02T15:55:49.466Z,19.07
2023-02-02T15:58:31.803Z,20.47
2023-02-02T16:01:03.472Z,17.40
2023-02-02T16:03:37.908Z,16.70
2023-02-02T16:06:08.019Z,16.80
2023-02-02T16:08:37.958Z,18.90
2023-02-02T16:11:09.479Z,15.90
2023-02-02T16:13:40.183Z,13.97
2023-02-02T16:16:23.145Z,19.40
2023-02-02T16:19:03.147Z,20.57
2023-02-02T16:21:31.731Z,18.33
2023-02-02T16:23:59.730Z,18.17
2023-02-02T16:26:31.180Z,22.80
2023-02-02T16:29:00.483Z,25.83
2023-02-02T16:31:31.181Z,20.00
2023-02-02T16:34:00.572Z,20.20
2023-02-02T16:36:29.980Z,23.17
2023-02-02T16:39:00.976Z,24.43
2023-02-02T16:41:32.161Z,23.23
2023-02-02T16:44:31.178Z,29.17
2023-02-02T16:47:01.433Z,29.23
2023-02-02T16:49:30.979Z,18.07
2023-02-02T16:52:11.081Z,25.90
2023-02-02T16:54:39.845Z,18.97
2023-02-02T16:59:38.789Z,12.70
2023-02-02T17:02:22.010Z,16.13
2023-02-02T17:04:53.081Z,19.10
2023-02-02T17:07:22.233Z,19.17
2023-02-02T17:09:49.884Z,19.00
2023-02-02T17:12:33.689Z,21.03
2023-02-02T17:15:24.627Z,17.23
2023-02-02T17:17:53.493Z,21.90
2023-02-02T17:20:21.795Z,14.85
2023-02-02T17:22:53.557Z,20.42
2023-02-02T17:25:28.398Z,21.13
2023-02-02T17:27:57.684Z,22.30
2023-02-02T17:30:27.369Z,20.60
2023-02-02T17:32:55.089Z,24.00
2023-02-02T17:35:25.237Z,23.03
2023-02-02T17:37:53.617Z,20.93
2023-02-02T17:40:23.666Z,18.35
2023-02-02T17:42:53.384Z,18.57
2023-02-02T17:45:24.165Z,20.17
2023-02-02T17:47:53.496Z,20.47
2023-02-02T17:50:21.696Z,20.57
2023-02-02T17:52:50.289Z,22.23
2023-02-02T17:55:21.793Z,17.50
2023-02-02T17:57:49.497Z,25.10
2023-02-02T18:00:17.993Z,18.73
2023-02-02T18:02:46.566Z,18.10
2023-02-02T18:05:16.592Z,16.90
2023-02-02T18:07:44.310Z,19.77
2023-02-02T18:10:13.792Z,17.93
2023-02-02T18:12:41.798Z,17.80
2023-02-02T18:15:12.577Z,13.38
2023-02-02T18:17:40.408Z,14.10
2023-02-02T18:20:09.550Z,15.33
2023-02-02T18:22:38.544Z,15.47
2023-02-02T18:25:06.563Z,13.83
2023-02-02T18:27:34.142Z,15.55
2023-02-02T18:30:01.735Z,20.67
2023-02-02T18:32:29.335Z,19.43
2023-02-02T18:34:56.957Z,12.20
2023-02-02T18:37:25.702Z,15.73
2023-02-02T18:42:22.502Z,15.20
2023-02-02T18:44:50.100Z,16.60
2023-02-02T18:47:18.009Z,18.17
2023-02-02T18:49:45.762Z,14.88
2023-02-02T18:52:13.351Z,13.90
2023-02-02T18:54:41.013Z,17.30
2023-02-02T18:57:13.810Z,13.87
2023-02-02T18:59:41.703Z,18.27
2023-02-02T19:02:13.679Z,18.08
2023-02-02T19:05:01.431Z,15.47
2023-02-02T19:07:47.015Z,15.27
2023-02-02T19:10:17.172Z,16.23
2023-02-02T19:12:55.129Z,18.57
2023-02-02T19:15:23.214Z,16.83
2023-02-02T19:17:53.630Z,15.25
2023-02-02T19:20:30.157Z,13.93
2023-02-02T19:23:07.642Z,14.90
2023-02-02T19:25:35.240Z,22.27
2023-02-02T19:28:13.812Z,18.50
2023-02-02T19:30:45.133Z,14.23
2023-02-02T19:33:14.209Z,19.40
2023-02-02T19:35:45.034Z,15.00
2023-02-02T19:38:15.176Z,17.53
2023-02-02T19:40:44.151Z,17.90
2023-02-02T19:43:24.499Z,16.03
2023-02-02T19:45:52.566Z,18.40
2023-02-02T19:48:23.045Z,14.93
2023-02-02T19:50:50.732Z,12.83
2023-02-02T19:53:22.982Z,17.13
2023-02-02T19:55:51.264Z,20.23
2023-02-02T19:58:22.489Z,19.73
2023-02-02T20:00:52.495Z,17.67
2023-02-02T20:03:22.520Z,15.43
2023-02-02T20:05:51.813Z,21.07
2023-02-02T20:08:26.538Z,17.93
2023-02-02T20:10:56.207Z,17.23
2023-02-02T20:13:27.059Z,15.23
2023-02-02T20:16:03.544Z,12.53
2023-02-02T20:18:43.062Z,15.93
2023-02-02T20:21:20.246Z,14.60
2023-02-02T20:23:48.603Z,14.47
2023-02-02T20:26:24.413Z,15.25
2023-02-02T20:28:54.966Z,20.33
2023-02-02T20:31:25.738Z,11.63
2023-02-02T20:33:55.308Z,13.70
2023-02-02T20:36:38.607Z,14.33
2023-02-02T20:39:27.753Z,10.27
2023-02-02T20:41:57.053Z,22.77
2023-02-02T20:44:26.993Z,15.63
2023-02-02T20:46:55.725Z,13.10
2023-02-02T20:51:54.180Z,10.90
2023-02-02T20:54:22.519Z,13.35
2023-02-02T20:56:50.144Z,17.35
2023-02-02T20:59:18.944Z,10.80
2023-02-02T21:04:18.303Z,11.87
2023-02-02T21:06:48.216Z,18.48
2023-02-02T21:09:17.379Z,12.40
2023-02-02T21:11:45.005Z,15.60
2023-02-02T21:14:12.605Z,8.43
2023-02-02T21:16:40.474Z,14.33
2023-02-02T21:19:09.602Z,12.88
2023-02-02T21:21:37.398Z,13.43
2023-02-02T21:24:05.942Z,10.00
2023-02-02T21:26:33.738Z,10.68
2023-02-02T21:29:01.502Z,11.23
2023-02-02T21:31:29.562Z,14.60
2023-02-02T21:33:57.368Z,12.30
2023-02-02T21:36:32.687Z,10.10
2023-02-02T21:39:12.867Z,10.30
2023-02-02T21:41:40.575Z,12.90
2023-02-02T21:44:13.791Z,16.03
2023-02-02T21:46:41.831Z,14.13
2023-02-02T21:49:20.972Z,13.70
2023-02-02T21:51:50.590Z,12.63
2023-02-02T21:54:24.047Z,11.00
2023-02-02T21:56:52.871Z,13.57
2023-02-02T22:01:50.348Z,11.80
2023-02-02T22:04:22.462Z,10.87
2023-02-02T22:06:53.156Z,11.00
2023-02-02T22:09:23.467Z,12.07
2023-02-02T22:11:55.679Z,13.30
2023-02-02T22:14:27.966Z,14.60
2023-02-02T22:16:58.622Z,11.93
2023-02-02T22:19:33.357Z,16.10
2023-02-02T22:22:15.614Z,9.40
2023-02-02T22:24:44.859Z,10.73
2023-02-02T22:27:21.600Z,12.37
2023-02-02T22:29:50.243Z,12.57
2023-02-02T22:32:17.907Z,12.38
2023-02-02T22:34:45.501Z,13.57
2023-02-02T22:37:14.506Z,10.90
2023-02-02T22:39:43.222Z,11.50
2023-02-02T22:42:11.091Z,13.23
2023-02-02T22:44:38.827Z,13.00
2023-02-02T22:47:06.519Z,11.57
2023-02-02T22:49:34.152Z,13.07
2023-02-02T22:52:01.877Z,13.70
2023-02-02T22:54:31.133Z,13.27
2023-02-02T22:56:58.697Z,11.90
2023-02-02T22:59:26.325Z,14.37
2023-02-02T23:01:53.856Z,10.13
2023-02-02T23:04:21.833Z,15.03
2023-02-02T23:06:49.414Z,15.45
2023-02-02T23:09:17.524Z,15.53
2023-02-02T23:11:49.145Z,9.82
2023-02-02T23:14:17.175Z,15.60
2023-02-02T23:16:44.759Z,16.20
2023-02-02T23:19:12.365Z,10.97
2023-02-02T23:21:39.952Z,13.33
2023-02-02T23:24:08.191Z,13.27
2023-02-02T23:26:35.809Z,17.33
2023-02-02T23:29:04.781Z,14.63
2023-02-02T23:31:32.626Z,12.70
2023-02-02T23:34:00.288Z,13.60
2023-02-02T23:36:27.936Z,12.90
2023-02-02T23:38:55.713Z,12.23
2023-02-02T23:41:23.464Z,11.47
2023-02-02T23:43:51.034Z,8.83
2023-02-02T23:46:20.179Z,9.23
2023-02-02T23:48:48.173Z,11.33
2023-02-02T23:51:16.054Z,13.82
2023-02-02T23:53:43.892Z,11.18
2023-02-02T23:56:11.585Z,12.67
2023-02-02T23:58:39.260Z,13.43
